Time;durP1;ratioP1;P1;durP2;ratioP2;P2;SDS_P1;SDS_P2;PMS_P1;PMS_P2;Temp;Humidity;BMP_temperature;BMP_pressure;BME280_temperature;BME280_humidity;BME280_pressure;Samples;Min_cycle;Max_cycle;Signal;HPM_P1;HPM_P2
2022/10/13 00:00:36;;;;;;;4.43;2.45;;;19.70;54.50;;;;;;6261260;22;20028;-71
2022/10/13 00:03:02;;;;;;;6.20;2.40;;;19.60;54.40;;;;;;6235522;22;20015;-71
2022/10/13 00:05:29;;;;;;;6.55;2.50;;;19.60;54.40;;;;;;6261835;22;20058;-74
2022/10/13 00:07:55;;;;;;;4.47;2.28;;;19.60;54.40;;;;;;6233841;22;20023;-71
2022/10/13 00:10:21;;;;;;;6.75;2.72;;;19.60;54.40;;;;;;6259680;22;20091;-71
2022/10/13 00:12:47;;;;;;;6.28;2.70;;;19.60;54.40;;;;;;6236079;22;20526;-75
2022/10/13 00:15:12;;;;;;;6.72;2.30;;;19.70;54.40;;;;;;6263419;22;20027;-72
2022/10/13 00:17:38;;;;;;;5.10;2.60;;;19.60;54.40;;;;;;6261976;22;20359;-73
2022/10/13 00:20:05;;;;;;;6.32;2.30;;;19.60;54.40;;;;;;6234353;22;20053;-71
2022/10/13 00:22:31;;;;;;;4.80;2.92;;;19.60;54.40;;;;;;6263257;22;20024;-70
2022/10/13 00:24:57;;;;;;;6.20;2.63;;;19.60;54.40;;;;;;6261268;22;20016;-71
2022/10/13 00:27:23;;;;;;;5.80;2.25;;;19.60;54.30;;;;;;6261551;22;20027;-73
2022/10/13 00:29:48;;;;;;;5.28;2.42;;;19.60;54.30;;;;;;6262116;22;20015;-71
2022/10/13 00:32:14;;;;;;;4.35;2.20;;;19.60;54.30;;;;;;6263422;22;20019;-71
2022/10/13 00:34:40;;;;;;;5.43;2.45;;;19.60;54.30;;;;;;6237879;22;20019;-71
2022/10/13 00:37:05;;;;;;;6.60;2.53;;;19.60;54.30;;;;;;6263232;22;20016;-71
2022/10/13 00:39:31;;;;;;;5.00;2.20;;;19.60;54.30;;;;;;6233961;22;20364;-71
2022/10/13 00:41:57;;;;;;;5.50;2.38;;;19.60;54.30;;;;;;6258857;22;20023;-71
2022/10/13 00:45:01;;;;;;;5.28;2.58;;;19.60;54.30;;;;;;6263353;22;20244;-70
2022/10/13 00:47:35;;;;;;;4.60;2.00;;;19.60;54.40;;;;;;6234966;22;20016;-72
2022/10/13 00:50:01;;;;;;;5.10;2.20;;;19.60;54.30;;;;;;6261367;22;20606;-71
2022/10/13 00:52:29;;;;;;;5.45;2.13;;;19.60;54.30;;;;;;6236526;22;20012;-71
2022/10/13 00:54:55;;;;;;;7.65;2.50;;;19.60;54.30;;;;;;6261601;22;20016;-72
2022/10/13 00:57:22;;;;;;;5.28;2.38;;;19.60;54.30;;;;;;6237141;22;20020;-71
2022/10/13 00:59:48;;;;;;;6.10;2.40;;;19.60;54.30;;;;;;6262955;22;20145;-72
2022/10/13 01:02:14;;;;;;;4.03;2.30;;;19.60;54.30;;;;;;6262737;22;20050;-71
2022/10/13 01:04:42;;;;;;;5.30;2.65;;;19.60;54.30;;;;;;6263675;22;20027;-72
2022/10/13 01:07:08;;;;;;;4.90;2.33;;;19.60;54.30;;;;;;6229746;23;20073;-72
2022/10/13 01:09:36;;;;;;;4.20;2.30;;;19.60;54.30;;;;;;6232028;22;20302;-71
2022/10/13 01:12:37;;;;;;;6.60;2.35;;;19.60;54.30;;;;;;6231675;22;20030;-71
2022/10/13 01:15:05;;;;;;;6.18;2.50;;;19.60;54.30;;;;;;6230364;23;20529;-72
2022/10/13 01:18:03;;;;;;;4.72;2.33;;;19.60;54.30;;;;;;6231284;23;20024;-72
2022/10/13 01:20:49;;;;;;;7.33;2.70;;;19.60;54.30;;;;;;6097673;22;20100;-72
2022/10/13 01:23:37;;;;;;;5.43;2.30;;;19.60;54.30;;;;;;6231263;23;20283;-73
2022/10/13 01:26:14;;;;;;;;;;;19.50;54.20;;;;;;6231148;23;20024;-74
2022/10/13 01:28:58;;;;;;;3.40;1.90;;;19.50;54.30;;;;;;6229016;23;19939;-74
2022/10/13 01:31:54;;;;;;;3.35;1.67;;;19.50;54.30;;;;;;6228808;23;20016;-71
2022/10/13 01:34:29;;;;;;;5.18;2.35;;;19.60;54.30;;;;;;6230387;23;20316;-71
2022/10/13 01:37:19;;;;;;;4.15;2.38;;;19.50;54.30;;;;;;6229859;23;20015;-73
2022/10/13 01:39:56;;;;;;;7.18;2.47;;;19.50;54.30;;;;;;6231152;23;20043;-73
2022/10/13 01:42:33;;;;;;;3.87;2.20;;;19.50;54.30;;;;;;6231701;23;20348;-75
2022/10/13 01:45:01;;;;;;;3.35;2.15;;;19.50;54.30;;;;;;6232392;22;20035;-73
2022/10/13 01:47:30;;;;;;;4.30;2.03;;;19.50;54.30;;;;;;6233151;22;20052;-74
2022/10/13 01:49:56;;;;;;;5.45;2.30;;;19.50;54.30;;;;;;6231447;22;20107;-75
2022/10/13 01:52:29;;;;;;;6.55;2.33;;;19.50;54.30;;;;;;6230751;23;20027;-75
2022/10/13 01:54:55;;;;;;;5.03;2.47;;;19.50;54.30;;;;;;6230303;22;20055;-75
2022/10/13 01:57:40;;;;;;;3.65;2.33;;;19.50;54.40;;;;;;6230670;23;20302;-75
2022/10/13 02:00:27;;;;;;;5.28;2.30;;;19.50;54.30;;;;;;6231508;22;20452;-72
2022/10/13 02:03:22;;;;;;;4.13;2.10;;;19.50;54.30;;;;;;6229832;23;20386;-71
2022/10/13 02:06:12;;;;;;;7.38;2.20;;;19.50;54.40;;;;;;6231912;22;20028;-72
2022/10/13 02:09:07;;;;;;;2.70;2.00;;;19.50;54.30;;;;;;6262232;22;20516;-71
2022/10/13 02:11:33;;;;;;;4.22;2.10;;;19.60;54.40;;;;;;6233130;22;20073;-73
2022/10/13 02:14:05;;;;;;;4.05;1.90;;;19.50;54.30;;;;;;6233967;22;20027;-70
2022/10/13 02:16:37;;;;;;;4.40;2.20;;;19.50;54.40;;;;;;6261542;22;20353;-72
2022/10/13 02:19:05;;;;;;;3.72;2.10;;;19.50;54.40;;;;;;6235703;22;20388;-70
2022/10/13 02:21:31;;;;;;;4.15;2.28;;;19.50;54.40;;;;;;6263149;22;20274;-72
2022/10/13 02:23:57;;;;;;;9.98;2.50;;;19.50;54.40;;;;;;6262697;22;20035;-72
2022/10/13 02:26:24;;;;;;;4.18;2.50;;;19.50;54.40;;;;;;6262990;22;20012;-73
2022/10/13 02:28:50;;;;;;;3.42;2.20;;;19.50;54.40;;;;;;6262948;22;20042;-71
2022/10/13 02:31:15;;;;;;;5.22;2.47;;;19.50;54.40;;;;;;6262656;22;20026;-71
2022/10/13 02:33:41;;;;;;;3.38;2.30;;;19.50;54.40;;;;;;6235427;22;20055;-74
2022/10/13 02:36:06;;;;;;;3.35;2.20;;;19.50;54.40;;;;;;6235601;22;20114;-74
2022/10/13 02:38:32;;;;;;;5.82;2.40;;;19.50;54.40;;;;;;6233571;22;20336;-72
2022/10/13 02:41:00;;;;;;;4.57;2.45;;;19.50;54.50;;;;;;6236231;22;20020;-74
2022/10/13 02:43:25;;;;;;;5.28;2.80;;;19.40;54.40;;;;;;6261512;22;20007;-74
2022/10/13 02:45:51;;;;;;;4.97;2.10;;;19.50;54.40;;;;;;6234330;22;20073;-73
2022/10/13 02:48:17;;;;;;;4.15;2.00;;;19.40;54.40;;;;;;6264093;22;20571;-72
2022/10/13 02:50:42;;;;;;;3.50;2.13;;;19.50;54.50;;;;;;6233872;22;20024;-75
2022/10/13 02:53:08;;;;;;;4.55;2.40;;;19.40;54.40;;;;;;6236652;22;20081;-72
2022/10/13 02:55:36;;;;;;;3.42;1.98;;;19.40;54.50;;;;;;6232495;22;20039;-72
2022/10/13 02:58:02;;;;;;;5.13;2.33;;;19.40;54.50;;;;;;6235740;22;20046;-73
2022/10/13 03:00:27;;;;;;;4.80;2.10;;;19.50;54.50;;;;;;6234821;22;20020;-73
2022/10/13 03:02:53;;;;;;;5.30;2.55;;;19.50;54.50;;;;;;6235839;22;20023;-74
2022/10/13 03:05:19;;;;;;;3.33;2.03;;;19.40;54.50;;;;;;6263210;22;20024;-72
2022/10/13 03:07:44;;;;;;;4.28;2.08;;;19.40;55.20;;;;;;6261856;22;20038;-71
2022/10/13 03:10:10;;;;;;;3.65;2.22;;;19.40;54.40;;;;;;6262670;22;20087;-71
2022/10/13 03:12:35;;;;;;;4.07;2.00;;;19.40;54.50;;;;;;6234752;22;20053;-72
2022/10/13 03:15:01;;;;;;;4.70;2.05;;;19.40;54.50;;;;;;6235091;22;20015;-75
2022/10/13 03:17:27;;;;;;;5.28;2.35;;;19.40;54.50;;;;;;6264123;22;20015;-76
2022/10/13 03:19:52;;;;;;;4.80;2.25;;;19.40;54.50;;;;;;6264223;22;20525;-71
2022/10/13 03:22:18;;;;;;;5.15;2.63;;;19.40;54.50;;;;;;6236951;22;20384;-70
2022/10/13 03:24:43;;;;;;;3.92;2.50;;;19.40;54.50;;;;;;6236633;22;20280;-74
2022/10/13 03:27:09;;;;;;;5.38;2.63;;;19.40;54.50;;;;;;6212790;22;20100;-75
2022/10/13 03:29:35;;;;;;;5.30;2.63;;;19.40;54.50;;;;;;6237183;22;20026;-75
2022/10/13 03:32:00;;;;;;;3.63;2.35;;;19.40;54.50;;;;;;6237913;22;20099;-73
2022/10/13 03:34:26;;;;;;;3.67;2.20;;;19.40;54.50;;;;;;6236954;22;20131;-72
2022/10/13 03:36:52;;;;;;;5.95;2.72;;;19.40;54.50;;;;;;6265688;22;20019;-76
2022/10/13 03:39:17;;;;;;;4.63;2.20;;;19.40;54.60;;;;;;6263813;22;20020;-75
2022/10/13 03:41:43;;;;;;;3.88;2.58;;;19.40;54.50;;;;;;6264068;22;20081;-75
2022/10/13 03:44:12;;;;;;;4.30;2.30;;;19.30;54.50;;;;;;6265028;22;20016;-73
2022/10/13 03:46:37;;;;;;;5.40;2.60;;;19.30;54.50;;;;;;6234700;22;20404;-75
2022/10/13 03:49:03;;;;;;;3.53;2.25;;;19.30;54.50;;;;;;6265659;22;20012;-72
2022/10/13 03:51:28;;;;;;;4.13;2.55;;;19.30;54.50;;;;;;6235935;22;20034;-74
2022/10/13 03:53:54;;;;;;;4.63;2.45;;;19.40;54.60;;;;;;6237629;22;20012;-74
2022/10/13 03:56:25;;;;;;;6.20;2.50;;;19.40;54.60;;;;;;6210687;22;20327;-74
2022/10/13 03:58:53;;;;;;;4.50;2.50;;;19.40;54.60;;;;;;6237450;22;20059;-71
2022/10/13 04:01:21;;;;;;;4.20;2.40;;;19.30;54.60;;;;;;6236667;22;20016;-70
2022/10/13 04:03:46;;;;;;;4.55;2.33;;;19.30;54.50;;;;;;6237482;22;20097;-72
2022/10/13 04:06:12;;;;;;;3.92;2.00;;;19.40;54.60;;;;;;6237076;22;20019;-72
2022/10/13 04:08:37;;;;;;;5.50;2.50;;;19.40;54.60;;;;;;6263067;22;20020;-75
2022/10/13 04:11:06;;;;;;;4.25;2.17;;;19.30;54.60;;;;;;6264809;22;20525;-75
2022/10/13 04:13:32;;;;;;;;;;;19.40;54.60;;;;;;6264031;22;20015;-74
2022/10/13 04:16:06;;;;;;;4.30;2.30;;;19.30;54.60;;;;;;6263569;22;19926;-75
2022/10/13 04:18:31;;;;;;;4.10;2.20;;;19.30;54.60;;;;;;6264036;22;20581;-74
2022/10/13 04:20:57;;;;;;;4.10;2.20;;;19.30;54.60;;;;;;6236387;22;20168;-72
2022/10/13 04:23:23;;;;;;;4.78;2.00;;;19.30;54.60;;;;;;6264512;22;20098;-72
2022/10/13 04:25:50;;;;;;;5.22;2.20;;;19.30;54.60;;;;;;6234587;22;20019;-72
2022/10/13 04:28:17;;;;;;;3.72;2.15;;;19.30;54.70;;;;;;6236375;22;20030;-72
2022/10/13 04:30:42;;;;;;;3.08;2.10;;;19.30;54.70;;;;;;6262130;22;20293;-71
2022/10/13 04:33:08;;;;;;;3.72;2.30;;;19.30;54.70;;;;;;6237101;22;20090;-75
2022/10/13 04:35:39;;;;;;;4.13;2.20;;;19.30;54.70;;;;;;6235599;22;20020;-71
2022/10/13 04:38:04;;;;;;;2.80;2.10;;;19.30;54.70;;;;;;6235404;22;20026;-75
2022/10/13 04:40:30;;;;;;;4.88;2.33;;;19.30;54.70;;;;;;6234501;22;20015;-75
2022/10/13 04:42:56;;;;;;;3.40;2.33;;;19.30;54.70;;;;;;6211005;22;20016;-72
2022/10/13 04:45:22;;;;;;;3.72;2.20;;;19.30;54.80;;;;;;6264555;22;20042;-74
2022/10/13 04:47:47;;;;;;;3.50;2.10;;;19.40;54.80;;;;;;6263672;22;20023;-75
2022/10/13 04:50:13;;;;;;;3.75;2.20;;;19.30;54.80;;;;;;6236055;22;20019;-75
2022/10/13 04:52:38;;;;;;;3.05;2.20;;;19.30;54.80;;;;;;6262872;22;20011;-73
2022/10/13 04:55:04;;;;;;;4.47;2.45;;;19.40;54.90;;;;;;6261720;22;20016;-74
2022/10/13 04:57:30;;;;;;;3.75;2.30;;;19.30;54.90;;;;;;6264798;22;20019;-75
2022/10/13 04:59:55;;;;;;;4.38;2.40;;;19.40;55.00;;;;;;6264083;22;20035;-71
2022/10/13 05:02:21;;;;;;;6.40;2.45;;;19.40;55.10;;;;;;6234923;22;20023;-74
2022/10/13 05:04:47;;;;;;;5.50;2.75;;;19.40;55.20;;;;;;6262907;22;20026;-71
2022/10/13 05:07:12;;;;;;;5.10;2.65;;;19.40;55.40;;;;;;6263308;22;20015;-71
2022/10/13 05:09:38;;;;;;;5.00;2.45;;;19.40;55.50;;;;;;6234427;22;20026;-70
2022/10/13 05:12:03;;;;;;;5.53;2.30;;;19.30;55.50;;;;;;6236598;22;20512;-71
2022/10/13 05:14:31;;;;;;;7.03;2.50;;;19.40;55.60;;;;;;6236585;22;20051;-71
2022/10/13 05:16:56;;;;;;;4.57;2.50;;;19.40;55.70;;;;;;6261684;22;20101;-71
2022/10/13 05:19:22;;;;;;;6.53;2.72;;;19.40;55.80;;;;;;6235141;22;20444;-69
2022/10/13 05:21:47;;;;;;;9.57;2.75;;;19.40;55.90;;;;;;6233615;22;20159;-71
2022/10/13 05:24:14;;;;;;;4.70;2.60;;;19.40;56.00;;;;;;6234844;22;20102;-71
2022/10/13 05:26:40;;;;;;;6.25;2.42;;;19.40;56.00;;;;;;6264107;22;20034;-71
2022/10/13 05:29:07;;;;;;;6.57;2.63;;;19.40;56.10;;;;;;6235622;22;20019;-71
2022/10/13 05:31:34;;;;;;;6.00;2.17;;;19.40;56.10;;;;;;6235959;22;20045;-72
2022/10/13 05:34:00;;;;;;;4.50;2.38;;;19.40;56.20;;;;;;6234769;22;20035;-74
2022/10/13 05:36:29;;;;;;;5.28;2.28;;;19.40;56.20;;;;;;6262279;22;20114;-72
2022/10/13 05:38:57;;;;;;;7.50;2.95;;;19.50;56.20;;;;;;6207639;22;20027;-71
2022/10/13 05:41:24;;;;;;;7.27;2.90;;;19.40;56.20;;;;;;6235890;22;20015;-72
2022/10/13 05:43:56;;;;;;;7.18;2.70;;;19.40;56.10;;;;;;6262006;22;20451;-72
2022/10/13 05:46:21;;;;;;;8.00;2.63;;;19.40;56.20;;;;;;6262151;22;20359;-70
2022/10/13 05:48:47;;;;;;;5.72;2.55;;;19.40;56.20;;;;;;6234035;22;20023;-72
2022/10/13 05:51:17;;;;;;;6.78;2.65;;;19.40;56.30;;;;;;6234320;22;20019;-72
2022/10/13 05:53:47;;;;;;;8.07;2.70;;;19.40;56.20;;;;;;6261604;22;20472;-72
2022/10/13 05:56:16;;;;;;;6.75;2.78;;;19.40;56.20;;;;;;6234258;22;20387;-71
2022/10/13 05:58:49;;;;;;;5.03;2.78;;;19.40;56.20;;;;;;6233930;22;20361;-70
2022/10/13 06:01:18;;;;;;;9.18;2.63;;;19.40;56.20;;;;;;6234025;22;20015;-69
2022/10/13 06:03:46;;;;;;;10.30;2.90;;;19.40;56.30;;;;;;6259678;22;20130;-70
2022/10/13 06:06:12;;;;;;;4.57;2.65;;;19.40;56.40;;;;;;6233499;22;20011;-72
2022/10/13 06:08:38;;;;;;;7.43;2.97;;;19.40;56.40;;;;;;6232200;22;20432;-74
2022/10/13 06:11:04;;;;;;;6.05;2.65;;;19.40;56.40;;;;;;6234631;22;20448;-73
2022/10/13 06:13:33;;;;;;;5.32;2.75;;;19.40;56.50;;;;;;6261558;22;20116;-72
2022/10/13 06:15:59;;;;;;;10.85;3.17;;;19.30;56.60;;;;;;6234607;22;20070;-71
2022/10/13 06:18:24;;;;;;;6.13;2.65;;;19.30;56.70;;;;;;6261572;22;20012;-73
2022/10/13 06:20:51;;;;;;;6.53;2.90;;;19.30;56.80;;;;;;6231148;22;20374;-72
2022/10/13 06:23:17;;;;;;;6.35;2.78;;;19.30;56.70;;;;;;6254189;22;20070;-73
2022/10/13 06:25:47;;;;;;;5.10;2.65;;;19.30;56.90;;;;;;6249719;22;20680;-72
2022/10/13 06:28:13;;;;;;;5.63;2.72;;;19.30;57.00;;;;;;6232245;22;20132;-72
2022/10/13 06:30:39;;;;;;;5.25;2.58;;;19.30;57.00;;;;;;6228005;22;20130;-72
2022/10/13 06:33:05;;;;;;;7.45;3.10;;;19.30;57.10;;;;;;6229984;22;20095;-71
2022/10/13 06:35:30;;;;;;;6.70;2.90;;;19.30;57.20;;;;;;6204366;22;20016;-73
2022/10/13 06:37:56;;;;;;;7.47;2.80;;;19.30;57.20;;;;;;6258793;22;20409;-72
2022/10/13 06:40:22;;;;;;;6.93;2.85;;;19.30;57.30;;;;;;6230160;22;20404;-72
2022/10/13 06:42:50;;;;;;;10.68;3.00;;;19.30;57.30;;;;;;6232653;22;20106;-73
2022/10/13 06:45:18;;;;;;;8.63;3.08;;;19.30;57.40;;;;;;6260391;22;20012;-73
2022/10/13 06:47:44;;;;;;;7.07;2.78;;;19.40;57.40;;;;;;6231616;22;20012;-73
2022/10/13 06:50:09;;;;;;;6.43;2.75;;;19.30;57.40;;;;;;6206123;22;20080;-72
2022/10/13 06:52:35;;;;;;;4.57;2.97;;;19.30;57.40;;;;;;6263246;22;20023;-73
2022/10/13 06:55:02;;;;;;;10.15;3.28;;;19.40;57.50;;;;;;6260266;22;20023;-72
2022/10/13 06:57:28;;;;;;;9.38;2.97;;;19.40;57.60;;;;;;6261231;22;20023;-70
2022/10/13 06:59:53;;;;;;;6.03;2.85;;;19.40;57.80;;;;;;6262014;22;20012;-72
2022/10/13 07:02:19;;;;;;;7.10;2.83;;;19.40;57.70;;;;;;6232621;22;20027;-70
2022/10/13 07:04:46;;;;;;;8.13;2.90;;;19.40;57.60;;;;;;6233139;22;20018;-72
2022/10/13 07:07:12;;;;;;;10.38;3.13;;;19.40;57.60;;;;;;6233839;22;20035;-76
2022/10/13 07:09:38;;;;;;;7.55;2.80;;;19.40;57.60;;;;;;6230297;22;20564;-76
2022/10/13 07:12:04;;;;;;;8.88;3.10;;;19.40;57.60;;;;;;6232624;22;20015;-74
2022/10/13 07:14:32;;;;;;;8.30;2.65;;;19.40;57.60;;;;;;6261649;22;20091;-72
2022/10/13 07:16:58;;;;;;;7.28;2.78;;;19.40;57.60;;;;;;6235110;22;20099;-77
2022/10/13 07:19:24;;;;;;;5.70;3.10;;;19.50;57.70;;;;;;6232678;22;20073;-73
2022/10/13 07:21:49;;;;;;;5.30;2.67;;;19.40;57.60;;;;;;6258509;22;20104;-71
2022/10/13 07:24:17;;;;;;;7.50;2.78;;;19.50;57.70;;;;;;6260793;22;20121;-71
2022/10/13 07:26:42;;;;;;;6.03;3.28;;;19.50;57.60;;;;;;6257879;22;20024;-71
2022/10/13 07:29:08;;;;;;;10.32;3.45;;;19.50;57.60;;;;;;6259405;22;21119;-72
2022/10/13 07:31:34;;;;;;;5.22;2.78;;;19.50;57.70;;;;;;6231370;22;20024;-72
2022/10/13 07:34:04;;;;;;;5.40;3.03;;;19.50;57.60;;;;;;6232564;22;20882;-71
2022/10/13 07:36:34;;;;;;;5.65;2.95;;;19.50;57.60;;;;;;6259533;22;20362;-71
2022/10/13 07:39:01;;;;;;;7.40;2.97;;;19.50;57.70;;;;;;6228502;22;20085;-71
2022/10/13 07:41:28;;;;;;;5.83;3.10;;;19.50;57.60;;;;;;6235746;22;20034;-74
2022/10/13 07:43:54;;;;;;;6.93;3.22;;;19.50;57.60;;;;;;6264519;22;20083;-73
2022/10/13 07:46:20;;;;;;;7.57;3.08;;;19.50;57.70;;;;;;6235446;22;20027;-73
2022/10/13 07:48:46;;;;;;;5.53;3.10;;;19.60;57.60;;;;;;6263489;22;20575;-72
2022/10/13 07:51:12;;;;;;;6.47;3.30;;;19.60;57.60;;;;;;6237672;22;20020;-73
2022/10/13 07:53:40;;;;;;;6.32;2.95;;;19.50;57.50;;;;;;6233731;22;20351;-72
2022/10/13 07:56:07;;;;;;;6.63;3.03;;;19.60;57.60;;;;;;6234554;22;20047;-71
2022/10/13 07:58:36;;;;;;;4.80;2.90;;;19.60;57.60;;;;;;6262634;22;20331;-73
2022/10/13 08:01:02;;;;;;;12.70;3.13;;;19.60;57.60;;;;;;6262815;22;20012;-73
2022/10/13 08:03:28;;;;;;;6.50;3.00;;;19.60;57.60;;;;;;6236541;22;20030;-74
2022/10/13 08:05:54;;;;;;;6.15;2.83;;;19.60;57.60;;;;;;6234666;22;20470;-72
2022/10/13 08:08:20;;;;;;;9.43;2.72;;;19.60;57.60;;;;;;6236798;22;20396;-73
2022/10/13 08:10:46;;;;;;;5.78;3.10;;;19.60;57.60;;;;;;6234162;22;20063;-72
2022/10/13 08:13:12;;;;;;;6.80;3.42;;;19.60;57.70;;;;;;6236280;22;20525;-73
2022/10/13 08:15:42;;;;;;;4.80;2.78;;;19.60;57.60;;;;;;6235305;22;20078;-77
2022/10/13 08:18:09;;;;;;;5.00;2.90;;;19.60;57.60;;;;;;6210787;22;20125;-71
2022/10/13 08:20:39;;;;;;;5.10;3.22;;;19.60;57.60;;;;;;6236059;22;20058;-74
2022/10/13 08:23:04;;;;;;;6.40;2.90;;;19.60;57.70;;;;;;6263243;22;20022;-74
2022/10/13 08:25:38;;;;;;;5.70;3.05;;;19.60;57.70;;;;;;6261593;22;20016;-74
2022/10/13 08:28:05;;;;;;;4.80;2.63;;;19.60;57.70;;;;;;6234958;22;20030;-72
2022/10/13 08:30:31;;;;;;;4.55;2.78;;;19.60;57.70;;;;;;6236014;22;20007;-72
2022/10/13 08:32:57;;;;;;;6.88;2.85;;;19.70;57.70;;;;;;6237231;22;20039;-73
2022/10/13 08:35:22;;;;;;;6.45;3.35;;;19.60;57.70;;;;;;6235344;22;20111;-72
2022/10/13 08:37:48;;;;;;;5.53;3.10;;;19.60;57.70;;;;;;6235397;22;20030;-72
2022/10/13 08:40:20;;;;;;;8.27;3.00;;;19.70;57.90;;;;;;6232591;22;20019;-73
2022/10/13 08:42:46;;;;;;;9.10;3.38;;;19.60;57.80;;;;;;6236204;22;20011;-71
2022/10/13 08:45:22;;;;;;;5.47;3.15;;;19.70;57.90;;;;;;6235652;22;20047;-72
2022/10/13 08:47:55;;;;;;;6.75;3.20;;;19.70;57.90;;;;;;6236338;22;20055;-75
2022/10/13 08:50:24;;;;;;;5.80;2.83;;;19.60;58.60;;;;;;6233466;22;20682;-75
2022/10/13 08:53:10;;;;;;;5.18;2.63;;;19.70;57.90;;;;;;6262434;22;20011;-71
2022/10/13 08:55:54;;;;;;;6.18;2.95;;;19.70;57.80;;;;;;6235008;22;20031;-70
2022/10/13 08:58:26;;;;;;;5.85;3.10;;;19.60;57.70;;;;;;6234267;22;20026;-72
2022/10/13 09:01:13;;;;;;;3.90;2.95;;;19.70;57.80;;;;;;6235586;22;20012;-72
2022/10/13 09:03:51;;;;;;;6.80;3.67;;;19.70;57.80;;;;;;6236346;22;20128;-71
2022/10/13 09:06:41;;;;;;;10.88;3.22;;;19.70;57.90;;;;;;6262154;22;20019;-71
2022/10/13 09:09:12;;;;;;;5.50;3.05;;;19.70;58.00;;;;;;6245036;22;20024;-73
2022/10/13 09:11:40;;;;;;;7.78;3.22;;;19.70;58.00;;;;;;6262933;22;20094;-71
2022/10/13 09:14:09;;;;;;;8.80;3.05;;;19.70;58.20;;;;;;6262818;22;20019;-72
2022/10/13 09:16:37;;;;;;;7.78;3.33;;;19.70;58.20;;;;;;6262495;22;20057;-71
2022/10/13 09:19:26;;;;;;;4.15;2.60;;;19.70;58.20;;;;;;6262929;22;20023;-72
2022/10/13 09:22:11;;;;;;;7.78;3.13;;;19.70;58.30;;;;;;6210475;22;20035;-70
2022/10/13 09:24:37;;;;;;;4.60;2.90;;;19.70;58.40;;;;;;6235108;22;20054;-71
2022/10/13 09:27:10;;;;;;;6.00;3.22;;;19.70;58.40;;;;;;6263457;22;20618;-72
2022/10/13 09:29:36;;;;;;;6.30;2.90;;;19.70;58.40;;;;;;6237008;22;20030;-74
2022/10/13 09:32:34;;;;;;;5.72;2.97;;;19.70;58.50;;;;;;6235021;22;20102;-77
2022/10/13 09:35:11;;;;;;;;;;;19.70;58.60;;;;;;6236776;22;20027;-71
2022/10/13 09:37:37;;;;;;;5.82;2.97;;;19.80;58.60;;;;;;6235221;22;19922;-77
2022/10/13 09:40:21;;;;;;;8.43;3.15;;;19.80;58.50;;;;;;6235988;22;20444;-72
2022/10/13 09:42:51;;;;;;;5.22;2.83;;;19.80;58.60;;;;;;6262288;22;20041;-72
2022/10/13 09:45:22;;;;;;;4.53;2.80;;;19.80;58.60;;;;;;6261677;22;20759;-72
2022/10/13 09:47:59;;;;;;;6.07;3.05;;;19.80;58.60;;;;;;6261928;22;20098;-71
2022/10/13 09:50:28;;;;;;;6.30;3.28;;;19.80;58.70;;;;;;6263013;22;20110;-70
2022/10/13 09:53:30;;;;;;;4.38;3.05;;;19.80;58.70;;;;;;6235327;22;20023;-73
2022/10/13 09:56:18;;;;;;;5.25;3.25;;;19.80;58.80;;;;;;6236300;22;20026;-71
2022/10/13 09:59:15;;;;;;;9.63;3.42;;;19.80;58.90;;;;;;6234921;22;20341;-71
2022/10/13 10:01:46;;;;;;;6.10;3.05;;;19.80;58.90;;;;;;6235974;22;20462;-74
2022/10/13 10:04:33;;;;;;;6.95;3.00;;;19.80;58.90;;;;;;6263248;22;20015;-73
2022/10/13 10:07:01;;;;;;;6.32;2.97;;;19.80;59.00;;;;;;6235196;22;20028;-74
2022/10/13 10:09:32;;;;;;;7.07;3.13;;;19.80;58.90;;;;;;6236013;22;20110;-72
2022/10/13 10:12:01;;;;;;;6.40;2.83;;;19.80;59.00;;;;;;6234730;22;20023;-71
2022/10/13 10:14:49;;;;;;;3.88;2.88;;;19.80;59.00;;;;;;6235739;22;20023;-72
2022/10/13 10:17:36;;;;;;;3.70;2.78;;;19.80;59.20;;;;;;6262355;22;20418;-72
2022/10/13 10:20:39;;;;;;;5.28;2.83;;;19.80;59.20;;;;;;6234842;22;20107;-73
2022/10/13 10:23:50;;;;;;;4.45;3.08;;;19.80;59.20;;;;;;6235998;22;20015;-76
2022/10/13 10:26:18;;;;;;;6.43;3.35;;;19.80;59.20;;;;;;6195549;22;20462;-74
2022/10/13 10:29:18;;;;;;;4.28;2.92;;;19.70;59.10;;;;;;6264933;22;20097;-73
2022/10/13 10:32:05;;;;;;;5.88;2.92;;;19.80;59.20;;;;;;6265028;22;20031;-71
2022/10/13 10:34:35;;;;;;;4.90;3.10;;;19.80;59.30;;;;;;6239288;22;20078;-70
2022/10/13 10:37:07;;;;;;;5.05;3.35;;;19.70;59.30;;;;;;6263797;22;20428;-73
2022/10/13 10:39:46;;;;;;;4.80;2.90;;;19.80;59.40;;;;;;6236658;22;20116;-74
2022/10/13 10:42:34;;;;;;;4.80;2.92;;;19.80;59.40;;;;;;6237665;22;20030;-72
2022/10/13 10:45:02;;;;;;;6.40;3.40;;;19.80;59.40;;;;;;6267542;22;20027;-71
2022/10/13 10:47:41;;;;;;;3.90;2.97;;;19.80;59.40;;;;;;6266484;22;20335;-73
2022/10/13 10:50:12;;;;;;;4.93;3.30;;;19.80;59.40;;;;;;6237337;22;20059;-74
2022/10/13 10:53:13;;;;;;;3.88;3.00;;;19.80;59.50;;;;;;6187599;22;20016;-72
2022/10/13 10:56:11;;;;;;;5.82;2.90;;;19.80;59.60;;;;;;6236371;22;20015;-73
2022/10/13 10:59:15;;;;;;;5.97;3.22;;;19.80;59.60;;;;;;6211420;22;20142;-72
2022/10/13 11:01:55;;;;;;;5.53;2.83;;;19.80;59.70;;;;;;6235621;22;20022;-72
2022/10/13 11:04:32;;;;;;;3.50;2.67;;;19.80;59.70;;;;;;6237816;22;20024;-72
2022/10/13 11:06:58;;;;;;;4.72;2.67;;;19.70;59.70;;;;;;6262919;22;20027;-73
2022/10/13 11:09:41;;;;;;;4.82;2.70;;;19.70;59.70;;;;;;6263781;22;20096;-74
2022/10/13 11:12:19;;;;;;;4.18;2.78;;;19.70;59.80;;;;;;6236993;22;20015;-73
2022/10/13 11:15:04;;;;;;;5.60;2.70;;;19.80;59.90;;;;;;6211694;22;20027;-73
2022/10/13 11:17:32;;;;;;;3.47;2.58;;;19.70;59.80;;;;;;6236820;22;20023;-75
2022/10/13 11:19:59;;;;;;;6.43;2.80;;;19.80;59.90;;;;;;6236939;22;20022;-74
2022/10/13 11:22:26;;;;;;;6.40;2.90;;;19.70;59.90;;;;;;6238141;22;20134;-73
2022/10/13 11:24:54;;;;;;;5.50;2.92;;;19.70;59.80;;;;;;6234890;22;20026;-75
2022/10/13 11:27:31;;;;;;;5.90;3.22;;;19.80;59.80;;;;;;6237581;22;20027;-78
2022/10/13 11:29:59;;;;;;;4.28;2.90;;;19.80;60.00;;;;;;6237037;22;20027;-72
2022/10/13 11:32:25;;;;;;;7.80;3.33;;;19.70;59.90;;;;;;6264097;22;20058;-71
2022/10/13 11:35:06;;;;;;;4.18;2.83;;;19.70;59.90;;;;;;6237782;22;20023;-77
2022/10/13 11:37:55;;;;;;;3.67;2.80;;;19.80;60.10;;;;;;6210851;22;20024;-76
2022/10/13 11:40:46;;;;;;;5.30;2.70;;;19.70;60.00;;;;;;6236658;22;20320;-71
2022/10/13 11:43:44;;;;;;;5.20;2.80;;;19.70;60.00;;;;;;6236031;22;20027;-70
2022/10/13 11:46:48;;;;;;;;;;;19.70;60.00;;;;;;6234044;22;20081;-76
2022/10/13 11:50:04;;;;;;;3.80;2.70;;;19.70;60.00;;;;;;6086140;23;19920;-72
2022/10/13 11:53:08;;;;;;;7.28;3.10;;;19.70;60.00;;;;;;6057279;23;20061;-73
2022/10/13 11:55:50;;;;;;;5.55;2.78;;;19.70;60.00;;;;;;6235651;22;20098;-74
2022/10/13 11:58:29;;;;;;;3.92;2.75;;;19.70;59.90;;;;;;6237893;22;20027;-76
2022/10/13 12:01:10;;;;;;;3.70;2.55;;;19.70;59.90;;;;;;6237650;22;20103;-75
2022/10/13 12:03:44;;;;;;;6.18;2.92;;;19.70;59.90;;;;;;6263396;22;20016;-77
2022/10/13 12:06:32;;;;;;;4.22;2.88;;;19.70;59.90;;;;;;6236052;22;20022;-77
2022/10/13 12:09:19;;;;;;;9.25;3.15;;;19.70;59.90;;;;;;6236417;22;20111;-75
2022/10/13 12:11:46;;;;;;;4.88;2.88;;;19.70;60.00;;;;;;6262405;22;20412;-77
2022/10/13 12:14:21;;;;;;;6.30;3.65;;;19.70;60.00;;;;;;6237063;22;20024;-78
2022/10/13 12:16:58;;;;;;;4.68;3.28;;;19.70;60.00;;;;;;6235300;22;20026;-73
2022/10/13 12:19:26;;;;;;;8.23;3.17;;;19.70;60.10;;;;;;6237877;22;20051;-75
2022/10/13 12:21:54;;;;;;;5.70;2.92;;;19.70;60.10;;;;;;6236424;22;20024;-76
2022/10/13 12:24:25;;;;;;;6.32;3.22;;;19.70;60.10;;;;;;6262999;22;20061;-76
2022/10/13 12:26:52;;;;;;;6.28;3.20;;;19.70;60.10;;;;;;6236978;22;20087;-75
2022/10/13 12:29:20;;;;;;;7.15;3.22;;;19.70;60.10;;;;;;6263446;22;20135;-76
2022/10/13 12:31:48;;;;;;;4.95;2.90;;;19.70;60.20;;;;;;6235959;22;20035;-77
2022/10/13 12:34:33;;;;;;;5.35;3.30;;;19.70;60.20;;;;;;6236136;22;20099;-76
2022/10/13 12:37:00;;;;;;;4.22;3.10;;;19.70;60.10;;;;;;6265401;22;20020;-77
2022/10/13 12:39:28;;;;;;;3.55;2.97;;;19.70;60.10;;;;;;6235022;22;20043;-75
2022/10/13 12:41:56;;;;;;;5.07;3.25;;;19.80;60.20;;;;;;6236680;22;20047;-74
2022/10/13 12:44:24;;;;;;;4.93;3.28;;;19.80;60.20;;;;;;6263806;22;20099;-75
2022/10/13 12:46:57;;;;;;;5.55;3.40;;;19.80;60.20;;;;;;6234959;22;20479;-76
2022/10/13 12:49:26;;;;;;;5.50;3.22;;;19.70;60.10;;;;;;6237063;22;20023;-76
2022/10/13 12:52:02;;;;;;;3.97;3.08;;;19.80;60.20;;;;;;6235460;22;20023;-75
2022/10/13 12:54:37;;;;;;;4.38;3.28;;;19.80;60.20;;;;;;6263196;22;20015;-75
2022/10/13 12:57:36;;;;;;;5.32;3.30;;;19.80;60.10;;;;;;6262772;22;20034;-74
2022/10/13 13:00:22;;;;;;;7.35;3.70;;;19.80;60.20;;;;;;6224393;22;20407;-75
2022/10/13 13:02:52;;;;;;;8.90;3.65;;;19.80;60.20;;;;;;6234729;22;20024;-74
2022/10/13 13:05:34;;;;;;;7.18;3.67;;;19.80;60.20;;;;;;6264039;22;20016;-75
2022/10/13 13:08:01;;;;;;;6.53;3.42;;;19.80;60.10;;;;;;6236233;22;20110;-74
2022/10/13 13:10:27;;;;;;;6.35;3.55;;;19.80;60.20;;;;;;6233900;22;20023;-76